createdAt,value
2018-09-21T18:01:02.411Z,100601.98
2018-09-21T18:03:31.013Z,100602.42
2018-09-21T18:05:59.659Z,100612.83
2018-09-21T18:08:28.148Z,100604.33
2018-09-21T18:10:56.964Z,100603.20
2018-09-21T18:13:25.457Z,100606.97
2018-09-21T18:15:54.914Z,100610.88
2018-09-21T18:18:23.326Z,100612.34
2018-09-21T18:20:51.815Z,100621.48
2018-09-21T18:23:21.016Z,100615.21
2018-09-21T18:25:49.932Z,100609.72
2018-09-21T18:28:18.573Z,100602.09
2018-09-21T18:30:47.106Z,100615.25
2018-09-21T18:33:16.728Z,100624.86
2018-09-21T18:35:45.387Z,100624.55
2018-09-21T18:38:14.850Z,100640.50
2018-09-21T18:40:43.696Z,100652.39
2018-09-21T18:43:12.492Z,100664.75
2018-09-21T18:45:41.774Z,100666.39
2018-09-21T18:48:10.734Z,100665.30
2018-09-21T18:50:39.652Z,100681.57
2018-09-21T18:53:08.360Z,100678.18
2018-09-21T18:55:38.316Z,100687.02
2018-09-21T18:58:07.460Z,100700.27
2018-09-21T19:00:36.668Z,100702.64
2018-09-21T19:03:05.755Z,100704.80
2018-09-21T19:05:35.173Z,100722.66
2018-09-21T19:08:04.424Z,100730.25
2018-09-21T19:10:33.371Z,100732.81
2018-09-21T19:13:02.146Z,100736.85
2018-09-21T19:15:31.118Z,100737.30
2018-09-21T19:18:17.659Z,100734.30
2018-09-21T19:21:03.047Z,100751.75
2018-09-21T19:23:36.727Z,100756.66
2018-09-21T19:29:09.805Z,100764.86
2018-09-21T19:31:40.158Z,100769.27
2018-09-21T19:34:16.179Z,100776.42
2018-09-21T19:36:51.427Z,100769.19
2018-09-21T19:39:25.662Z,100781.18
2018-09-21T19:42:03.962Z,100787.20
2018-09-21T19:44:37.916Z,100790.05
2018-09-21T19:47:15.372Z,100781.14
2018-09-21T19:49:48.580Z,100783.30
2018-09-21T19:52:24.680Z,100786.62
2018-09-21T19:54:59.287Z,100789.53
2018-09-21T20:14:44.332Z,100799.07
2018-09-21T20:20:27.769Z,100804.64
2018-09-21T20:23:00.692Z,100809.95
2018-09-21T20:25:36.045Z,100804.42
2018-09-21T20:28:13.744Z,100805.74
2018-09-21T20:30:55.357Z,100817.16
2018-09-21T20:33:31.564Z,100819.95
2018-09-21T20:36:00.361Z,100815.38
2018-09-21T20:38:29.935Z,100818.52
2018-09-21T20:40:59.005Z,100827.73
2018-09-21T20:43:27.764Z,100825.58
2018-09-21T20:45:57.032Z,100827.81
2018-09-21T20:48:25.684Z,100831.39
2018-09-21T20:50:54.399Z,100834.98
2018-09-21T20:53:25.002Z,100837.42
2018-09-21T20:55:54.523Z,100832.59
2018-09-21T20:58:23.101Z,100830.13
2018-09-21T21:00:51.729Z,100833.34
2018-09-21T21:03:21.271Z,100837.83
2018-09-21T21:05:49.875Z,100842.22
2018-09-21T21:08:18.575Z,100845.80
2018-09-21T21:10:47.216Z,100849.72
2018-09-21T21:13:16.074Z,100849.35
2018-09-21T21:15:44.966Z,100849.02
2018-09-21T21:18:13.769Z,100852.94
2018-09-21T21:20:42.483Z,100855.70
2018-09-21T21:23:11.731Z,100867.24
2018-09-21T21:28:08.192Z,100869.13
2018-09-21T21:30:37.697Z,100865.19
2018-09-21T21:33:07.354Z,100869.61
2018-09-21T21:35:36.170Z,100871.96
2018-09-21T21:38:04.640Z,100884.84
2018-09-21T21:40:33.434Z,100892.28
2018-09-21T21:43:02.009Z,100888.80
2018-09-21T21:45:30.699Z,100905.03
2018-09-21T21:48:00.283Z,100904.13
2018-09-21T21:50:29.269Z,100911.08
2018-09-21T21:52:58.018Z,100916.25
2018-09-21T21:55:27.288Z,100914.16
2018-09-21T21:57:55.840Z,100925.66
2018-09-21T22:00:28.270Z,100921.77
2018-09-21T22:02:56.832Z,100933.69
2018-09-21T22:05:25.506Z,100934.21
2018-09-21T22:07:54.254Z,100935.66
2018-09-21T22:10:22.720Z,100931.20
2018-09-21T22:12:56.880Z,100952.23
2018-09-21T22:15:25.769Z,100941.41
2018-09-21T22:17:54.484Z,100950.16
2018-09-21T22:20:22.987Z,100956.30
2018-09-21T22:22:52.180Z,100962.45
2018-09-21T22:25:20.639Z,100958.14
2018-09-21T22:27:49.487Z,100958.20
2018-09-21T22:30:17.989Z,100957.45
2018-09-21T22:32:46.772Z,100968.86
2018-09-21T22:35:15.503Z,100985.49
2018-09-21T22:37:44.092Z,100985.06
2018-09-21T22:40:12.744Z,100972.39
2018-09-21T22:42:41.926Z,100987.22
2018-09-21T22:45:10.773Z,100996.84
2018-09-21T22:47:39.337Z,100996.41
2018-09-21T22:50:07.810Z,100993.30
2018-09-21T22:52:36.398Z,100995.17
2018-09-21T22:55:05.556Z,100995.06
2018-09-21T22:57:34.020Z,101000.61
2018-09-21T23:00:02.604Z,101009.97
2018-09-21T23:02:31.321Z,101003.48
2018-09-21T23:04:59.767Z,101009.48
2018-09-21T23:07:28.347Z,101020.39
2018-09-21T23:09:56.945Z,101021.20
2018-09-21T23:12:25.825Z,101021.53
2018-09-21T23:14:54.461Z,101016.14
2018-09-21T23:17:23.053Z,101022.23
2018-09-21T23:19:51.527Z,101026.12
2018-09-21T23:22:21.143Z,101032.23
2018-09-21T23:24:49.821Z,101045.05
2018-09-21T23:27:18.406Z,101042.83
2018-09-21T23:29:46.853Z,101055.49
2018-09-21T23:32:16.081Z,101031.73
2018-09-21T23:34:44.851Z,101039.72
2018-09-21T23:37:13.305Z,101054.79
2018-09-21T23:39:41.801Z,101044.08
2018-09-21T23:42:10.506Z,101052.50
2018-09-21T23:44:39.356Z,101046.91
2018-09-21T23:47:08.008Z,101050.99
2018-09-21T23:49:36.584Z,101050.20
2018-09-21T23:52:05.505Z,101059.47
2018-09-21T23:54:34.030Z,101051.16
2018-09-21T23:57:10.075Z,101064.76
2018-09-21T23:59:38.793Z,101070.38
